Time;durP1;ratioP1;P1;durP2;ratioP2;P2;SDS_P1;SDS_P2;PMS_P1;PMS_P2;Temp;Humidity;BMP_temperature;BMP_pressure;BME280_temperature;BME280_humidity;BME280_pressure;Samples;Min_cycle;Max_cycle;Signal;HPM_P1;HPM_P2
2023/05/02 00:02:06;;;;;;;;;;;;;;;;;;5082289;28;20423;-77
2023/05/02 00:04:52;;;;;;;;;;;;;;;;;;5080983;28;19916;-77
2023/05/02 00:07:39;;;;;;;;;;;;;;;;;;5080674;28;19931;-77
2023/05/02 00:10:25;;;;;;;;;;;;;;;;;;5076299;28;19923;-77
2023/05/02 00:13:12;;;;;;;;;;;;;;;;;;5066614;28;19946;-78
2023/05/02 00:15:58;;;;;;;;;;;;;;;;;;5084815;28;19920;-77
2023/05/02 00:18:45;;;;;;;;;;;;;;;;;;5069441;28;19916;-77
2023/05/02 00:21:31;;;;;;;;;;;;;;;;;;5065209;28;19923;-77
2023/05/02 00:24:18;;;;;;;;;;;;;;;;;;5078814;28;20395;-77
2023/05/02 00:27:05;;;;;;;;;;;;;;;;;;5076162;28;20296;-77
2023/05/02 00:29:51;;;;;;;;;;;;;;;;;;5097405;28;19916;-77
2023/05/02 00:32:38;;;;;;;;;;;;;;;;;;5084263;28;19924;-78
2023/05/02 00:35:24;;;;;;;;;;;;;;;;;;5084142;28;20010;-77
2023/05/02 00:38:11;;;;;;;;;;;;;;;;;;5082103;28;19916;-77
2023/05/02 00:40:57;;;;;;;;;;;;;;;;;;5084344;28;19916;-77
2023/05/02 00:43:44;;;;;;;;;;;;;;;;;;5086662;28;19919;-76
2023/05/02 00:46:30;;;;;;;;;;;;;;;;;;5083206;28;19916;-76
2023/05/02 00:49:17;;;;;;;;;;;;;;;;;;5077314;28;19916;-76
2023/05/02 00:52:03;;;;;;;;;;;;;;;;;;5078967;28;19928;-77
2023/05/02 00:54:50;;;;;;;;;;;;;;;;;;5079896;28;19931;-77
2023/05/02 00:57:36;;;;;;;;;;;;;;;;;;5087381;28;19916;-76
2023/05/02 01:00:23;;;;;;;;;;;;;;;;;;5081145;28;20359;-76
2023/05/02 01:03:09;;;;;;;;;;;;;;;;;;5066543;28;19916;-77
2023/05/02 01:05:56;;;;;;;;;;;;;;;;;;5082487;28;19916;-78
2023/05/02 01:08:42;;;;;;;;;;;;;;;;;;5076198;28;19912;-77
2023/05/02 01:11:29;;;;;;;;;;;;;;;;;;5083832;28;20345;-77
2023/05/02 01:14:15;;;;;;;;;;;;;;;;;;5078871;28;20425;-77
2023/05/02 01:17:03;;;;;;;;;;;;;;;;;;5069828;28;19927;-77
2023/05/02 01:19:49;;;;;;;;;;;;;;;;;;5078452;28;19916;-77
2023/05/02 01:22:36;;;;;;;;;;;;;;;;;;5082025;28;19916;-77
2023/05/02 01:25:23;;;;;;;;;;;;;;;;;;5086413;28;19916;-78
2023/05/02 01:28:10;;;;;;;;;;;;;;;;;;5075790;28;20287;-77
2023/05/02 01:30:56;;;;;;;;;;;;;;;;;;5083457;28;19928;-77
2023/05/02 01:33:43;;;;;;;;;;;;;;;;;;5078589;28;19927;-77
2023/05/02 01:36:30;;;;;;;;;;;;;;;;;;5073907;28;19928;-77
2023/05/02 01:39:16;;;;;;;;;;;;;;;;;;5074210;28;20407;-77
2023/05/02 01:42:03;;;;;;;;;;;;;;;;;;5079249;28;19916;-76
2023/05/02 01:44:49;;;;;;;;;;;;;;;;;;5079738;28;19916;-76
2023/05/02 01:47:36;;;;;;;;;;;;;;;;;;5076831;28;19930;-76
2023/05/02 01:50:23;;;;;;;;;;;;;;;;;;5076589;28;19921;-76
2023/05/02 01:53:10;;;;;;;;;;;;;;;;;;5078493;28;19923;-77
2023/05/02 01:55:56;;;;;;;;;;;;;;;;;;5079478;28;19939;-77
2023/05/02 01:58:43;;;;;;;;;;;;;;;;;;5082088;28;19922;-77
2023/05/02 02:01:29;;;;;;;;;;;;;;;;;;5082183;28;19922;-78
2023/05/02 02:04:16;;;;;;;;;;;;;;;;;;5082552;28;19919;-77
2023/05/02 02:07:02;;;;;;;;;;;;;;;;;;5080415;28;20462;-78
2023/05/02 02:09:49;;;;;;;;;;;;;;;;;;5082610;28;19920;-78
2023/05/02 02:12:35;;;;;;;;;;;;;;;;;;5083959;28;20021;-76
2023/05/02 02:15:22;;;;;;;;;;;;;;;;;;5073872;28;19986;-78
2023/05/02 02:18:09;;;;;;;;;;;;;;;;;;5074021;28;19923;-77
2023/05/02 02:20:56;;;;;;;;;;;;;;;;;;5089279;28;19912;-77
2023/05/02 02:23:42;;;;;;;;;;;;;;;;;;5078268;28;19931;-77
2023/05/02 02:26:29;;;;;;;;;;;;;;;;;;5083467;28;19916;-77
2023/05/02 02:29:15;;;;;;;;;;;;;;;;;;5081238;28;20379;-76
2023/05/02 02:32:02;;;;;;;;;;;;;;;;;;5073686;28;20577;-77
2023/05/02 02:34:49;;;;;;;;;;;;;;;;;;5072070;28;19928;-78
2023/05/02 02:37:35;;;;;;;;;;;;;;;;;;5053306;28;19916;-78
2023/05/02 02:40:22;;;;;;;;;;;;;;;;;;5062358;28;19917;-78
2023/05/02 02:43:08;;;;;;;;;;;;;;;;;;5062617;28;19912;-78
2023/05/02 02:45:54;;;;;;;;;;;;;;;;;;5062490;28;20299;-78
2023/05/02 02:48:41;;;;;;;;;;;;;;;;;;5070539;28;19928;-78
2023/05/02 02:51:27;;;;;;;;;;;;;;;;;;5063082;28;19924;-77
2023/05/02 02:54:15;;;;;;;;;;;;;;;;;;5043302;28;19916;-77
2023/05/02 02:57:01;;;;;;;;;;;;;;;;;;5062674;28;20376;-78
2023/05/02 02:59:48;;;;;;;;;;;;;;;;;;5061750;28;19916;-78
2023/05/02 03:02:34;;;;;;;;;;;;;;;;;;5060300;28;20705;-78
2023/05/02 03:05:21;;;;;;;;;;;;;;;;;;5065314;28;19912;-78
2023/05/02 03:08:07;;;;;;;;;;;;;;;;;;5066011;28;19942;-77
2023/05/02 03:10:54;;;;;;;;;;;;;;;;;;5063432;28;19924;-77
2023/05/02 03:13:40;;;;;;;;;;;;;;;;;;5048718;28;19932;-77
2023/05/02 03:16:27;;;;;;;;;;;;;;;;;;5075027;28;19923;-77
2023/05/02 03:19:13;;;;;;;;;;;;;;;;;;5064026;28;19924;-76
2023/05/02 03:22:00;;;;;;;;;;;;;;;;;;5069457;28;20224;-76
2023/05/02 03:24:46;;;;;;;;;;;;;;;;;;5057366;28;19931;-76
2023/05/02 03:27:33;;;;;;;;;;;;;;;;;;5042883;28;19920;-77
2023/05/02 03:30:20;;;;;;;;;;;;;;;;;;5068994;28;19923;-77
2023/05/02 03:33:07;;;;;;;;;;;;;;;;;;5056786;28;19931;-77
2023/05/02 03:35:54;;;;;;;;;;;;;;;;;;5074590;28;20402;-77
2023/05/02 03:38:40;;;;;;;;;;;;;;;;;;5064598;28;19920;-77
2023/05/02 03:41:27;;;;;;;;;;;;;;;;;;5064329;28;20344;-77
2023/05/02 03:44:13;;;;;;;;;;;;;;;;;;5054864;28;19916;-77
2023/05/02 03:47:00;;;;;;;;;;;;;;;;;;5064758;28;19917;-77
2023/05/02 03:49:46;;;;;;;;;;;;;;;;;;5063805;28;19924;-77
2023/05/02 03:52:33;;;;;;;;;;;;;;;;;;5062097;28;19920;-77
2023/05/02 03:55:20;;;;;;;;;;;;;;;;;;5041453;28;19921;-77
2023/05/02 03:58:06;;;;;;;;;;;;;;;;;;5059035;28;19927;-77
2023/05/02 04:00:53;;;;;;;;;;;;;;;;;;5060700;28;19918;-77
2023/05/02 04:03:39;;;;;;;;;;;;;;;;;;5061482;28;20741;-77
2023/05/02 04:06:26;;;;;;;;;;;;;;;;;;5064551;28;19923;-77
2023/05/02 04:09:12;;;;;;;;;;;;;;;;;;5049196;28;19916;-77
2023/05/02 04:11:59;;;;;;;;;;;;;;;;;;5064696;28;19925;-77
2023/05/02 04:14:45;;;;;;;;;;;;;;;;;;5066791;28;19932;-77
2023/05/02 04:17:32;;;;;;;;;;;;;;;;;;5064269;28;19917;-77
2023/05/02 04:20:18;;;;;;;;;;;;;;;;;;5063259;28;19924;-77
2023/05/02 04:23:05;;;;;;;;;;;;;;;;;;5065323;28;19967;-77
2023/05/02 04:25:52;;;;;;;;;;;;;;;;;;5060905;28;19924;-77
2023/05/02 04:28:38;;;;;;;;;;;;;;;;;;5056167;28;19923;-77
2023/05/02 04:31:26;;;;;;;;;;;;;;;;;;5053433;28;19921;-77
2023/05/02 04:34:12;;;;;;;;;;;;;;;;;;5060205;28;19920;-78
2023/05/02 04:36:59;;;;;;;;;;;;;;;;;;5063172;28;19936;-77
2023/05/02 04:39:45;;;;;;;;;;;;;;;;;;5049352;28;20578;-78
2023/05/02 04:42:32;;;;;;;;;;;;;;;;;;5065567;28;19924;-77
2023/05/02 04:45:18;;;;;;;;;;;;;;;;;;5063438;28;19927;-79
2023/05/02 04:48:05;;;;;;;;;;;;;;;;;;5072772;28;19917;-78
2023/05/02 04:50:52;;;;;;;;;;;;;;;;;;5056333;28;19917;-78
2023/05/02 04:53:39;;;;;;;;;;;;;;;;;;5042054;28;19927;-78
2023/05/02 04:56:25;;;;;;;;;;;;;;;;;;5062285;28;19923;-78
2023/05/02 04:59:12;;;;;;;;;;;;;;;;;;5046222;28;19917;-78
2023/05/02 05:01:58;;;;;;;;;;;;;;;;;;5061331;28;20466;-78
2023/05/02 05:04:45;;;;;;;;;;;;;;;;;;5066855;28;19916;-78
2023/05/02 05:07:31;;;;;;;;;;;;;;;;;;5056433;28;19927;-78
2023/05/02 05:10:18;;;;;;;;;;;;;;;;;;5050978;28;20397;-78
2023/05/02 05:13:04;;;;;;;;;;;;;;;;;;5054701;28;19920;-78
2023/05/02 05:15:51;;;;;;;;;;;;;;;;;;5063566;28;19916;-78
2023/05/02 05:18:40;;;;;;;;;;;;;;;;;;5061426;28;19940;-78
2023/05/02 05:21:27;;;;;;;;;;;;;;;;;;5051388;28;19917;-78
2023/05/02 05:24:13;;;;;;;;;;;;;;;;;;5062790;28;19917;-78
2023/05/02 05:27:00;;;;;;;;;;;;;;;;;;5062877;28;19921;-78
2023/05/02 05:29:46;;;;;;;;;;;;;;;;;;5053754;28;19927;-78
2023/05/02 05:32:33;;;;;;;;;;;;;;;;;;5058925;28;19932;-77
2023/05/02 05:35:19;;;;;;;;;;;;;;;;;;5074574;28;19927;-78
2023/05/02 05:38:06;;;;;;;;;;;;;;;;;;5077427;28;19931;-77
2023/05/02 05:40:52;;;;;;;;;;;;;;;;;;5073442;28;20387;-78
2023/05/02 05:43:39;;;;;;;;;;;;;;;;;;5071851;28;19918;-78
2023/05/02 05:46:25;;;;;;;;;;;;;;;;;;5083025;28;20316;-78
2023/05/02 05:49:12;;;;;;;;;;;;;;;;;;5084594;28;19912;-78
2023/05/02 05:51:58;;;;;;;;;;;;;;;;;;5082441;28;19928;-78
2023/05/02 05:54:45;;;;;;;;;;;;;;;;;;5081834;28;19916;-78
2023/05/02 05:57:31;;;;;;;;;;;;;;;;;;5084969;28;20006;-78
2023/05/02 06:00:18;;;;;;;;;;;;;;;;;;5075444;28;19919;-78
2023/05/02 06:03:05;;;;;;;;;;;;;;;;;;5079789;28;20661;-78
2023/05/02 06:05:52;;;;;;;;;;;;;;;;;;5087582;28;19915;-82
2023/05/02 06:08:38;;;;;;;;;;;;;;;;;;5074389;28;19913;-78
2023/05/02 06:11:25;;;;;;;;;;;;;;;;;;5085112;28;19932;-78
2023/05/02 06:14:11;;;;;;;;;;;;;;;;;;5079155;28;19916;-78
2023/05/02 06:16:57;;;;;;;;;;;;;;;;;;5083448;28;20367;-78
2023/05/02 06:19:44;;;;;;;;;;;;;;;;;;5081423;28;19912;-77
2023/05/02 06:22:31;;;;;;;;;;;;;;;;;;5076788;28;20394;-78
2023/05/02 06:25:17;;;;;;;;;;;;;;;;;;5063687;28;19923;-78
2023/05/02 06:28:04;;;;;;;;;;;;;;;;;;5053847;28;19919;-78
2023/05/02 06:30:50;;;;;;;;;;;;;;;;;;5085178;28;19920;-78
2023/05/02 06:33:37;;;;;;;;;;;;;;;;;;5052290;28;19931;-78
2023/05/02 06:36:23;;;;;;;;;;;;;;;;;;5106495;28;19927;-78
2023/05/02 06:39:10;;;;;;;;;;;;;;;;;;5095563;28;19919;-78
2023/05/02 06:41:57;;;;;;;;;;;;;;;;;;5104809;28;19912;-76
2023/05/02 06:44:43;;;;;;;;;;;;;;;;;;5107098;28;19916;-77
2023/05/02 06:47:30;;;;;;;;;;;;;;;;;;5090895;28;19954;-78
2023/05/02 06:50:16;;;;;;;;;;;;;;;;;;5100794;28;20006;-77
2023/05/02 06:53:03;;;;;;;;;;;;;;;;;;5098002;27;20556;-77
2023/05/02 06:55:49;;;;;;;;;;;;;;;;;;5103158;28;19930;-77
2023/05/02 06:58:36;;;;;;;;;;;;;;;;;;5104772;28;19940;-77
2023/05/02 07:01:22;;;;;;;;;;;;;;;;;;5083069;28;20295;-77
2023/05/02 07:04:09;;;;;;;;;;;;;;;;;;5074571;28;19916;-77
2023/05/02 07:06:55;;;;;;;;;;;;;;;;;;5104410;28;19916;-77
2023/05/02 07:09:42;;;;;;;;;;;;;;;;;;5100346;28;19937;-77
2023/05/02 07:12:28;;;;;;;;;;;;;;;;;;5089472;28;19928;-77
2023/05/02 07:15:15;;;;;;;;;;;;;;;;;;5076401;28;19913;-77
2023/05/02 07:18:02;;;;;;;;;;;;;;;;;;5093192;28;20363;-77
2023/05/02 07:20:48;;;;;;;;;;;;;;;;;;5104079;28;19920;-78
2023/05/02 07:23:35;;;;;;;;;;;;;;;;;;5102254;28;19916;-78
2023/05/02 07:26:22;;;;;;;;;;;;;;;;;;5095050;28;19918;-77
2023/05/02 07:29:09;;;;;;;;;;;;;;;;;;5105579;28;19923;-78
2023/05/02 07:31:55;;;;;;;;;;;;;;;;;;5105143;28;19926;-79
2023/05/02 07:34:42;;;;;;;;;;;;;;;;;;5104256;28;19928;-78
2023/05/02 07:37:29;;;;;;;;;;;;;;;;;;5076193;28;20373;-78
2023/05/02 07:40:15;;;;;;;;;;;;;;;;;;5083688;28;19922;-78
2023/05/02 07:43:02;;;;;;;;;;;;;;;;;;5080908;28;20607;-77
2023/05/02 07:45:48;;;;;;;;;;;;;;;;;;5076817;28;19923;-78
2023/05/02 07:48:35;;;;;;;;;;;;;;;;;;5092504;28;19916;-78
2023/05/02 07:51:21;;;;;;;;;;;;;;;;;;5078400;28;19923;-78
2023/05/02 07:54:08;;;;;;;;;;;;;;;;;;5088287;28;19926;-78
2023/05/02 07:56:57;;;;;;;;;;;;;;;;;;5104403;28;19919;-77
2023/05/02 07:59:43;;;;;;;;;;;;;;;;;;5087615;28;20367;-78
2023/05/02 08:02:30;;;;;;;;;;;;;;;;;;5082072;28;19916;-78
2023/05/02 08:05:16;;;;;;;;;;;;;;;;;;5083759;28;19918;-78
2023/05/02 08:08:03;;;;;;;;;;;;;;;;;;5102366;28;19916;-78
2023/05/02 08:10:50;;;;;;;;;;;;;;;;;;5105590;28;19923;-78
2023/05/02 08:13:36;;;;;;;;;;;;;;;;;;5091199;28;19924;-78
2023/05/02 08:16:23;;;;;;;;;;;;;;;;;;5104754;28;19916;-78
2023/05/02 08:19:10;;;;;;;;;;;;;;;;;;5104224;28;19938;-77
2023/05/02 08:21:56;;;;;;;;;;;;;;;;;;5100618;28;19991;-79
2023/05/02 08:24:43;;;;;;;;;;;;;;;;;;5072310;28;19916;-78
2023/05/02 08:27:29;;;;;;;;;;;;;;;;;;5098331;28;19938;-78
2023/05/02 08:30:16;;;;;;;;;;;;;;;;;;5081572;28;19916;-78
2023/05/02 08:33:02;;;;;;;;;;;;;;;;;;5077601;28;20406;-78
2023/05/02 08:35:49;;;;;;;;;;;;;;;;;;5082875;28;19932;-78
2023/05/02 08:38:35;;;;;;;;;;;;;;;;;;5090480;28;19926;-78
2023/05/02 08:41:22;;;;;;;;;;;;;;;;;;5103230;28;20005;-78
2023/05/02 08:44:08;;;;;;;;;;;;;;;;;;5098106;28;20275;-78
2023/05/02 08:46:55;;;;;;;;;;;;;;;;;;5102915;28;19916;-78
2023/05/02 08:49:41;;;;;;;;;;;;;;;;;;5106210;28;19927;-78
2023/05/02 08:52:27;;;;;;;;;;;;;;;;;;5086123;28;19940;-77
2023/05/02 08:55:14;;;;;;;;;;;;;;;;;;5094797;28;19923;-77
2023/05/02 08:58:00;;;;;;;;;;;;;;;;;;5100295;28;19916;-77
2023/05/02 09:00:47;;;;;;;;;;;;;;;;;;5103599;28;19919;-77
2023/05/02 09:03:33;;;;;;;;;;;;;;;;;;5080624;28;19923;-77
2023/05/02 09:06:20;;;;;;;;;;;;;;;;;;5101416;28;19922;-77
2023/05/02 09:09:07;;;;;;;;;;;;;;;;;;5103857;28;19923;-78
2023/05/02 09:11:53;;;;;;;;;;;;;;;;;;5103271;28;19920;-77
2023/05/02 09:14:40;;;;;;;;;;;;;;;;;;5104062;28;19915;-77
2023/05/02 09:17:26;;;;;;;;;;;;;;;;;;5098087;28;20368;-77
2023/05/02 09:20:13;;;;;;;;;;;;;;;;;;5103639;28;19922;-78
2023/05/02 09:22:59;;;;;;;;;;;;;;;;;;5093172;28;19922;-76
2023/05/02 09:25:46;;;;;;;;;;;;;;;;;;5102557;28;19942;-77
2023/05/02 09:28:32;;;;;;;;;;;;;;;;;;5077799;28;19926;-76
2023/05/02 09:31:20;;;;;;;;;;;;;;;;;;5087726;28;19923;-76
2023/05/02 09:34:06;;;;;;;;;;;;;;;;;;5095964;28;19934;-77
2023/05/02 09:36:53;;;;;;;;;;;;;;;;;;5081093;28;20383;-77
2023/05/02 09:39:39;;;;;;;;;;;;;;;;;;5083992;28;19924;-77
2023/05/02 09:42:26;;;;;;;;;;;;;;;;;;5079114;28;19927;-77
2023/05/02 09:45:12;;;;;;;;;;;;;;;;;;5078702;28;20295;-77
2023/05/02 09:47:59;;;;;;;;;;;;;;;;;;5085997;28;20382;-77
2023/05/02 09:50:45;;;;;;;;;;;;;;;;;;5084097;28;19912;-77
2023/05/02 09:53:32;;;;;;;;;;;;;;;;;;5076399;28;19928;-77
2023/05/02 09:56:18;;;;;;;;;;;;;;;;;;5081979;28;19912;-76
2023/05/02 09:59:05;;;;;;;;;;;;;;;;;;5077675;28;20424;-77
2023/05/02 10:01:51;;;;;;;;;;;;;;;;;;5065887;28;19927;-77
2023/05/02 10:04:38;;;;;;;;;;;;;;;;;;5079117;28;20357;-76
2023/05/02 10:07:24;;;;;;;;;;;;;;;;;;5071878;28;19923;-77
2023/05/02 10:10:10;;;;;;;;;;;;;;;;;;5084828;28;19920;-76
2023/05/02 10:12:57;;;;;;;;;;;;;;;;;;5073355;28;20662;-77
2023/05/02 10:15:43;;;;;;;;;;;;;;;;;;5080618;28;19939;-77
2023/05/02 10:18:30;;;;;;;;;;;;;;;;;;5078587;28;20375;-77
2023/05/02 10:21:17;;;;;;;;;;;;;;;;;;5077925;28;19916;-76
2023/05/02 10:24:04;;;;;;;;;;;;;;;;;;5080421;28;19916;-77
2023/05/02 10:26:50;;;;;;;;;;;;;;;;;;5075918;28;19920;-77
2023/05/02 10:32:49;;;;;;;;;;;;;;;;;;5091950;28;19935;-78
2023/05/02 10:35:36;;;;;;;;;;;;;;;;;;5066229;28;19924;-79
2023/05/02 10:38:23;;;;;;;;;;;;;;;;;;5060659;28;19916;-77
2023/05/02 10:41:10;;;;;;;;;;;;;;;;;;5053383;28;19920;-77
2023/05/02 10:43:57;;;;;;;;;;;;;;;;;;5060559;28;20391;-77
2023/05/02 10:46:43;;;;;;;;;;;;;;;;;;5062466;28;19913;-77
2023/05/02 10:49:30;;;;;;;;;;;;;;;;;;5054880;28;19923;-76
2023/05/02 10:52:16;;;;;;;;;;;;;;;;;;5055997;28;19928;-77
2023/05/02 10:55:03;;;;;;;;;;;;;;;;;;5054446;28;20395;-77
2023/05/02 10:57:49;;;;;;;;;;;;;;;;;;5061065;28;19920;-78
2023/05/02 11:00:36;;;;;;;;;;;;;;;;;;5063307;28;19916;-77
2023/05/02 11:03:22;;;;;;;;;;;;;;;;;;5060560;28;19917;-77
2023/05/02 11:06:09;;;;;;;;;;;;;;;;;;5052669;28;19924;-76
2023/05/02 11:08:55;;;;;;;;;;;;;;;;;;5063566;28;19920;-76
2023/05/02 11:11:42;;;;;;;;;;;;;;;;;;5065346;28;19924;-79
2023/05/02 11:14:29;;;;;;;;;;;;;;;;;;5042488;28;19917;-77
2023/05/02 11:17:16;;;;;;;;;;;;;;;;;;5064160;28;19916;-77
2023/05/02 11:20:03;;;;;;;;;;;;;;;;;;5064928;28;19927;-77
2023/05/02 11:22:49;;;;;;;;;;;;;;;;;;5064205;28;19923;-77
2023/05/02 11:25:36;;;;;;;;;;;;;;;;;;5061707;28;19916;-77
2023/05/02 11:28:22;;;;;;;;;;;;;;;;;;5082236;28;19916;-77
2023/05/02 11:31:12;;;;;;;;;;;;;;;;;;5086639;28;20361;-77
2023/05/02 11:33:58;;;;;;;;;;;;;;;;;;5080379;28;19929;-76
2023/05/02 11:36:45;;;;;;;;;;;;;;;;;;5066278;28;19923;-77
2023/05/02 11:39:31;;;;;;;;;;;;;;;;;;5059415;28;19917;-77
2023/05/02 11:42:18;;;;;;;;;;;;;;;;;;5040935;28;20297;-77
2023/05/02 11:45:04;;;;;;;;;;;;;;;;;;5062928;28;19920;-77
2023/05/02 11:47:51;;;;;;;;;;;;;;;;;;5049782;28;20288;-77
2023/05/02 11:50:37;;;;;;;;;;;;;;;;;;5057185;28;19916;-78
2023/05/02 11:53:24;;;;;;;;;;;;;;;;;;5062726;28;19931;-78
2023/05/02 11:56:10;;;;;;;;;;;;;;;;;;5058042;28;20326;-78
2023/05/02 11:58:57;;;;;;;;;;;;;;;;;;5063536;28;19917;-78
2023/05/02 12:01:44;;;;;;;;;;;;;;;;;;5054913;28;19924;-78
2023/05/02 12:04:31;;;;;;;;;;;;;;;;;;5063647;28;19923;-78
2023/05/02 12:07:17;;;;;;;;;;;;;;;;;;5063560;28;20362;-78
2023/05/02 12:10:04;;;;;;;;;;;;;;;;;;5065308;28;19967;-78
2023/05/02 12:12:50;;;;;;;;;;;;;;;;;;5052401;28;19930;-78
2023/05/02 12:15:37;;;;;;;;;;;;;;;;;;5065110;28;19916;-77
2023/05/02 12:18:23;;;;;;;;;;;;;;;;;;5044104;28;20471;-78
2023/05/02 12:21:10;;;;;;;;;;;;;;;;;;5061906;28;19919;-78
2023/05/02 12:23:57;;;;;;;;;;;;;;;;;;5061219;28;20380;-77
2023/05/02 12:26:44;;;;;;;;;;;;;;;;;;5063273;28;19920;-77
2023/05/02 12:29:30;;;;;;;;;;;;;;;;;;5072489;28;19917;-77
2023/05/02 12:32:17;;;;;;;;;;;;;;;;;;5061717;28;19924;-77
2023/05/02 12:35:03;;;;;;;;;;;;;;;;;;5076549;28;19928;-77
2023/05/02 12:37:49;;;;;;;;;;;;;;;;;;5084114;28;20279;-78
2023/05/02 12:40:36;;;;;;;;;;;;;;;;;;5079845;28;19922;-77
2023/05/02 12:43:22;;;;;;;;;;;;;;;;;;5083917;28;19916;-76
2023/05/02 12:46:09;;;;;;;;;;;;;;;;;;5085634;28;19916;-78
2023/05/02 12:48:55;;;;;;;;;;;;;;;;;;5081751;28;19968;-76
2023/05/02 12:51:42;;;;;;;;;;;;;;;;;;5065743;28;19944;-76
2023/05/02 12:54:29;;;;;;;;;;;;;;;;;;5081959;28;19912;-78
2023/05/02 12:57:15;;;;;;;;;;;;;;;;;;5077712;28;19916;-77
2023/05/02 13:00:02;;;;;;;;;;;;;;;;;;5084833;28;19927;-76
2023/05/02 13:02:48;;;;;;;;;;;;;;;;;;5080633;28;20383;-78
2023/05/02 13:05:35;;;;;;;;;;;;;;;;;;5079576;28;19916;-78
2023/05/02 13:08:22;;;;;;;;;;;;;;;;;;5079075;28;19946;-77
2023/05/02 13:11:09;;;;;;;;;;;;;;;;;;5076629;28;19922;-77
2023/05/02 13:13:55;;;;;;;;;;;;;;;;;;5082116;28;19924;-80
2023/05/02 13:16:41;;;;;;;;;;;;;;;;;;5077648;28;19920;-77
2023/05/02 13:19:30;;;;;;;;;;;;;;;;;;5071507;28;19916;-78
2023/05/02 13:22:16;;;;;;;;;;;;;;;;;;5083664;28;19916;-78
2023/05/02 13:25:03;;;;;;;;;;;;;;;;;;5083354;28;20479;-77
2023/05/02 13:27:49;;;;;;;;;;;;;;;;;;5085732;28;19916;-78
2023/05/02 13:30:36;;;;;;;;;;;;;;;;;;5085210;28;19916;-77
2023/05/02 13:33:22;;;;;;;;;;;;;;;;;;5085123;28;19931;-77
2023/05/02 13:36:09;;;;;;;;;;;;;;;;;;5083934;28;19928;-76
2023/05/02 13:38:56;;;;;;;;;;;;;;;;;;5088213;28;20382;-77
2023/05/02 13:41:43;;;;;;;;;;;;;;;;;;5068031;28;19916;-77
2023/05/02 13:44:29;;;;;;;;;;;;;;;;;;5097182;28;19916;-77
2023/05/02 13:47:16;;;;;;;;;;;;;;;;;;5071817;28;19916;-77
2023/05/02 13:50:02;;;;;;;;;;;;;;;;;;5076095;28;19923;-77
2023/05/02 13:52:49;;;;;;;;;;;;;;;;;;5095576;28;19935;-78
2023/05/02 13:55:35;;;;;;;;;;;;;;;;;;5084493;28;19917;-77
2023/05/02 13:58:22;;;;;;;;;;;;;;;;;;5074231;28;19912;-78
2023/05/02 14:01:08;;;;;;;;;;;;;;;;;;5082983;28;19920;-78
2023/05/02 14:03:55;;;;;;;;;;;;;;;;;;5082443;28;20597;-77
2023/05/02 14:06:41;;;;;;;;;;;;;;;;;;5086737;28;19915;-78
2023/05/02 14:09:28;;;;;;;;;;;;;;;;;;5081671;28;19916;-77
2023/05/02 14:12:14;;;;;;;;;;;;;;;;;;5080522;28;21374;-77
2023/05/02 14:15:01;;;;;;;;;;;;;;;;;;5080172;28;19924;-77
2023/05/02 14:17:47;;;;;;;;;;;;;;;;;;5073235;28;20390;-77
2023/05/02 14:20:34;;;;;;;;;;;;;;;;;;5081714;28;19916;-78
2023/05/02 14:23:20;;;;;;;;;;;;;;;;;;5083492;28;19922;-77
2023/05/02 14:26:07;;;;;;;;;;;;;;;;;;5078359;28;19923;-77
2023/05/02 14:28:53;;;;;;;;;;;;;;;;;;5078885;28;20702;-79
2023/05/02 14:31:40;;;;;;;;;;;;;;;;;;5087091;28;19927;-77
2023/05/02 14:34:26;;;;;;;;;;;;;;;;;;5089436;28;19924;-78
2023/05/02 14:37:13;;;;;;;;;;;;;;;;;;5081440;28;19924;-80
2023/05/02 14:39:59;;;;;;;;;;;;;;;;;;5079626;28;19916;-76
2023/05/02 14:42:46;;;;;;;;;;;;;;;;;;5081172;28;19927;-80
2023/05/02 14:45:32;;;;;;;;;;;;;;;;;;5086435;28;19916;-79
2023/05/02 14:48:19;;;;;;;;;;;;;;;;;;5085407;28;19923;-80
2023/05/02 14:51:06;;;;;;;;;;;;;;;;;;5081252;28;19927;-80
2023/05/02 14:53:53;;;;;;;;;;;;;;;;;;5082664;28;19928;-81
2023/05/02 14:56:40;;;;;;;;;;;;;;;;;;5096417;28;19927;-80
2023/05/02 14:59:26;;;;;;;;;;;;;;;;;;5086860;28;19916;-79
2023/05/02 15:02:13;;;;;;;;;;;;;;;;;;5084278;28;19927;-80
2023/05/02 15:05:00;;;;;;;;;;;;;;;;;;5073997;28;19940;-80
2023/05/02 15:07:46;;;;;;;;;;;;;;;;;;5079108;28;19927;-80
2023/05/02 15:10:33;;;;;;;;;;;;;;;;;;5081160;28;19916;-79
2023/05/02 15:19:01;;;;;;;;;;;;;;;;;;5373222;23;20276;-79
2023/05/02 15:21:48;;;;;;;;;;;;;;;;;;4974158;28;19921;-80
2023/05/02 15:24:35;;;;;;;;;;;;;;;;;;4976890;28;19924;-81
2023/05/02 15:27:21;;;;;;;;;;;;;;;;;;4984519;28;19918;-81
2023/05/02 15:30:08;;;;;;;;;;;;;;;;;;4987999;28;20913;-79
2023/05/02 15:32:54;;;;;;;;;;;;;;;;;;4981781;28;19932;-80
2023/05/02 15:35:41;;;;;;;;;;;;;;;;;;4989905;28;19918;-81
2023/05/02 15:38:27;;;;;;;;;;;;;;;;;;4995634;28;20364;-78
2023/05/02 15:41:14;;;;;;;;;;;;;;;;;;4989861;28;19918;-79
2023/05/02 15:44:00;;;;;;;;;;;;;;;;;;4991615;28;20273;-79
2023/05/02 15:46:48;;;;;;;;;;;;;;;;;;4988002;28;19921;-79
2023/05/02 15:49:34;;;;;;;;;;;;;;;;;;4997813;28;19935;-79
2023/05/02 15:52:21;;;;;;;;;;;;;;;;;;4982710;28;19930;-79
2023/05/02 15:55:07;;;;;;;;;;;;;;;;;;5004943;28;19940;-79
2023/05/02 15:57:54;;;;;;;;;;;;;;;;;;4992467;28;19928;-79
2023/05/02 16:00:40;;;;;;;;;;;;;;;;;;4994385;28;20308;-79
2023/05/02 16:03:27;;;;;;;;;;;;;;;;;;4985068;28;19933;-79
2023/05/02 16:06:14;;;;;;;;;;;;;;;;;;5002389;28;19940;-79
2023/05/02 16:09:01;;;;;;;;;;;;;;;;;;4988278;28;19928;-80
2023/05/02 16:11:48;;;;;;;;;;;;;;;;;;4987111;28;20116;-80
2023/05/02 16:14:34;;;;;;;;;;;;;;;;;;4971115;28;20022;-80
2023/05/02 16:17:21;;;;;;;;;;;;;;;;;;4983042;28;20393;-80
2023/05/02 16:20:07;;;;;;;;;;;;;;;;;;4997279;28;19926;-79
2023/05/02 16:22:54;;;;;;;;;;;;;;;;;;4996408;28;19917;-79
2023/05/02 16:25:40;;;;;;;;;;;;;;;;;;5009544;28;19925;-79
2023/05/02 16:28:27;;;;;;;;;;;;;;;;;;4994995;28;19920;-80
2023/05/02 16:31:13;;;;;;;;;;;;;;;;;;5003907;28;19928;-80
2023/05/02 16:34:00;;;;;;;;;;;;;;;;;;5005655;28;19944;-81
2023/05/02 16:36:47;;;;;;;;;;;;;;;;;;5005824;28;19917;-79
2023/05/02 16:39:34;;;;;;;;;;;;;;;;;;5005254;28;20010;-80
2023/05/02 16:42:21;;;;;;;;;;;;;;;;;;5013024;28;19924;-79
2023/05/02 16:45:07;;;;;;;;;;;;;;;;;;5006051;28;19917;-80
2023/05/02 16:47:54;;;;;;;;;;;;;;;;;;5010057;28;19925;-80
2023/05/02 16:50:40;;;;;;;;;;;;;;;;;;5010929;28;19940;-80
2023/05/02 16:53:27;;;;;;;;;;;;;;;;;;5004451;28;19933;-80
2023/05/02 16:56:13;;;;;;;;;;;;;;;;;;5003551;28;20631;-80
2023/05/02 16:59:00;;;;;;;;;;;;;;;;;;5002794;28;19914;-80
2023/05/02 17:01:46;;;;;;;;;;;;;;;;;;5001701;28;20035;-80
2023/05/02 17:04:33;;;;;;;;;;;;;;;;;;4998198;28;19925;-80
2023/05/02 17:07:19;;;;;;;;;;;;;;;;;;4988691;28;20368;-80
2023/05/02 17:10:06;;;;;;;;;;;;;;;;;;5003023;28;19924;-81
2023/05/02 17:12:54;;;;;;;;;;;;;;;;;;5001494;28;19940;-80
2023/05/02 17:15:41;;;;;;;;;;;;;;;;;;5003193;28;19917;-80
2023/05/02 17:18:28;;;;;;;;;;;;;;;;;;4999983;28;19932;-79
2023/05/02 17:21:14;;;;;;;;;;;;;;;;;;4999516;28;19932;-78
2023/05/02 17:24:01;;;;;;;;;;;;;;;;;;5003549;28;19914;-78
2023/05/02 17:26:47;;;;;;;;;;;;;;;;;;5000028;28;19917;-78
2023/05/02 17:29:34;;;;;;;;;;;;;;;;;;5009839;28;20444;-78
2023/05/02 17:32:21;;;;;;;;;;;;;;;;;;5002571;28;19937;-80
2023/05/02 17:35:07;;;;;;;;;;;;;;;;;;5016855;28;19925;-79
2023/05/02 17:37:54;;;;;;;;;;;;;;;;;;5010036;28;19924;-80
2023/05/02 17:40:41;;;;;;;;;;;;;;;;;;5007982;28;20433;-79
2023/05/02 17:43:27;;;;;;;;;;;;;;;;;;4998856;28;19918;-80
2023/05/02 17:46:13;;;;;;;;;;;;;;;;;;4987480;28;19945;-79
2023/05/02 17:49:00;;;;;;;;;;;;;;;;;;5003381;28;19917;-80
2023/05/02 17:51:46;;;;;;;;;;;;;;;;;;5005369;28;19933;-80
2023/05/02 17:54:33;;;;;;;;;;;;;;;;;;4986751;28;19926;-78
2023/05/02 17:57:19;;;;;;;;;;;;;;;;;;5002449;28;20324;-80
2023/05/02 18:00:06;;;;;;;;;;;;;;;;;;5002687;28;19925;-79
2023/05/02 18:02:53;;;;;;;;;;;;;;;;;;4986564;28;19917;-80
2023/05/02 18:05:42;;;;;;;;;;;;;;;;;;5003981;28;19918;-79
2023/05/02 18:08:32;;;;;;;;;;;;;;;;;;4990532;28;19917;-79
2023/05/02 18:11:18;;;;;;;;;;;;;;;;;;5004293;28;20618;-78
2023/05/02 18:14:05;;;;;;;;;;;;;;;;;;5004240;28;19925;-78
2023/05/02 18:16:51;;;;;;;;;;;;;;;;;;4988958;28;19925;-76
2023/05/02 18:19:38;;;;;;;;;;;;;;;;;;5009679;28;19949;-79
2023/05/02 18:22:25;;;;;;;;;;;;;;;;;;5008284;28;19921;-78
2023/05/02 18:25:11;;;;;;;;;;;;;;;;;;4995266;28;19918;-78
2023/05/02 18:27:58;;;;;;;;;;;;;;;;;;4973963;28;19925;-78
2023/05/02 18:30:45;;;;;;;;;;;;;;;;;;5005764;28;20359;-78
2023/05/02 18:33:31;;;;;;;;;;;;;;;;;;4998903;28;19956;-76
2023/05/02 18:36:19;;;;;;;;;;;;;;;;;;5012408;28;20377;-78
2023/05/02 18:39:05;;;;;;;;;;;;;;;;;;4988872;28;20842;-78
2023/05/02 18:41:52;;;;;;;;;;;;;;;;;;5012234;28;19917;-79
2023/05/02 18:44:38;;;;;;;;;;;;;;;;;;5007070;28;19922;-77
2023/05/02 18:47:25;;;;;;;;;;;;;;;;;;5001432;28;20284;-79
2023/05/02 18:50:11;;;;;;;;;;;;;;;;;;5008941;28;19917;-78
2023/05/02 18:52:58;;;;;;;;;;;;;;;;;;5020329;28;19933;-78
2023/05/02 18:55:44;;;;;;;;;;;;;;;;;;5004973;28;19917;-79
2023/05/02 18:58:32;;;;;;;;;;;;;;;;;;5002637;28;19913;-79
2023/05/02 19:01:20;;;;;;;;;;;;;;;;;;5002434;28;19921;-78
2023/05/02 19:04:07;;;;;;;;;;;;;;;;;;5018563;28;19917;-80
2023/05/02 19:06:53;;;;;;;;;;;;;;;;;;5007790;28;19917;-79